sensor_id;sensor_type;location;lat;lon;timestamp;pressure;altitude;pressure_sealevel;temperature;humidity
62789;BME280;66401;42.016;21.454;2023-05-11T05:28:49;98439.34;;;11.47;86.03
62789;BME280;66401;42.016;21.454;2023-05-11T05:31:14;98434.25;;;11.33;84.85
62789;BME280;66401;42.016;21.454;2023-05-11T05:33:40;98435.72;;;11.42;86.12
62789;BME280;66401;42.016;21.454;2023-05-11T05:36:06;98429.69;;;11.41;85.00
62789;BME280;66401;42.016;21.454;2023-05-11T05:38:31;98435.31;;;11.45;84.85
62789;BME280;66401;42.016;21.454;2023-05-11T05:40:57;98431.34;;;11.49;84.49
62789;BME280;66401;42.016;21.454;2023-05-11T05:43:26;98436.16;;;11.52;84.32
62789;BME280;66401;42.016;21.454;2023-05-11T05:45:51;98411.63;;;11.40;84.25
62789;BME280;66401;42.016;21.454;2023-05-11T05:48:20;98430.50;;;11.42;85.03
62789;BME280;66401;42.016;21.454;2023-05-11T05:50:45;98436.06;;;11.32;85.92
62789;BME280;66401;42.016;21.454;2023-05-11T05:53:11;98434.31;;;11.46;85.28
62789;BME280;66401;42.016;21.454;2023-05-11T05:55:38;98428.94;;;11.54;83.78
62789;BME280;66401;42.016;21.454;2023-05-11T05:58:03;98432.59;;;11.60;84.83
62789;BME280;66401;42.016;21.454;2023-05-11T06:00:29;98437.63;;;11.61;84.55
62789;BME280;66401;42.016;21.454;2023-05-11T06:02:55;98434.63;;;11.64;84.86
62789;BME280;66401;42.016;21.454;2023-05-11T06:05:20;98438.38;;;11.55;84.57
62789;BME280;66401;42.016;21.454;2023-05-11T06:07:46;98436.13;;;11.39;86.38
62789;BME280;66401;42.016;21.454;2023-05-11T06:10:11;98450.00;;;11.53;86.00
62789;BME280;66401;42.016;21.454;2023-05-11T06:12:37;98453.88;;;11.63;85.48
62789;BME280;66401;42.016;21.454;2023-05-11T06:15:03;98455.28;;;11.66;84.78
62789;BME280;66401;42.016;21.454;2023-05-11T06:17:28;98447.81;;;11.56;85.56
62789;BME280;66401;42.016;21.454;2023-05-11T06:19:54;98430.16;;;11.52;85.24
62789;BME280;66401;42.016;21.454;2023-05-11T06:22:19;98439.03;;;11.64;85.60
62789;BME280;66401;42.016;21.454;2023-05-11T06:24:45;98437.38;;;11.56;84.18
62789;BME280;66401;42.016;21.454;2023-05-11T06:27:11;98442.69;;;11.69;84.91
62789;BME280;66401;42.016;21.454;2023-05-11T06:29:37;98439.84;;;11.64;84.88
62789;BME280;66401;42.016;21.454;2023-05-11T06:32:02;98439.44;;;11.67;84.53
62789;BME280;66401;42.016;21.454;2023-05-11T06:34:28;98446.28;;;11.75;84.18
62789;BME280;66401;42.016;21.454;2023-05-11T06:36:54;98447.97;;;11.83;84.56
62789;BME280;66401;42.016;21.454;2023-05-11T06:39:20;98447.09;;;11.75;84.62
62789;BME280;66401;42.016;21.454;2023-05-11T06:41:46;98448.97;;;11.82;84.84
62789;BME280;66401;42.016;21.454;2023-05-11T06:44:11;98439.94;;;11.84;82.88
62789;BME280;66401;42.016;21.454;2023-05-11T06:46:37;98427.22;;;11.74;83.60
62789;BME280;66401;42.016;21.454;2023-05-11T06:49:02;98445.19;;;11.91;83.32
62789;BME280;66401;42.016;21.454;2023-05-11T06:51:28;98444.59;;;11.95;84.10
62789;BME280;66401;42.016;21.454;2023-05-11T06:53:53;98445.63;;;12.01;83.49
62789;BME280;66401;42.016;21.454;2023-05-11T06:56:19;98454.41;;;11.87;84.28
62789;BME280;66401;42.016;21.454;2023-05-11T06:58:46;98458.25;;;11.91;83.53
62789;BME280;66401;42.016;21.454;2023-05-11T07:01:11;98461.47;;;11.93;83.54
62789;BME280;66401;42.016;21.454;2023-05-11T07:03:37;98452.84;;;11.99;83.39
62789;BME280;66401;42.016;21.454;2023-05-11T07:06:02;98460.50;;;12.00;81.13
62789;BME280;66401;42.016;21.454;2023-05-11T07:08:28;98462.69;;;11.97;83.25
62789;BME280;66401;42.016;21.454;2023-05-11T07:10:53;98456.47;;;11.98;81.98
62789;BME280;66401;42.016;21.454;2023-05-11T07:13:19;98460.09;;;12.03;81.59
62789;BME280;66401;42.016;21.454;2023-05-11T07:15:44;98464.63;;;11.82;82.64
62789;BME280;66401;42.016;21.454;2023-05-11T07:18:10;98462.03;;;11.82;83.60
62789;BME280;66401;42.016;21.454;2023-05-11T07:20:36;98467.69;;;11.92;82.32
62789;BME280;66401;42.016;21.454;2023-05-11T07:23:01;98460.09;;;11.97;82.65
62789;BME280;66401;42.016;21.454;2023-05-11T07:25:28;98461.09;;;12.02;81.24
62789;BME280;66401;42.016;21.454;2023-05-11T07:27:54;98468.53;;;12.06;83.18
62789;BME280;66401;42.016;21.454;2023-05-11T07:30:20;98463.94;;;12.08;81.51
62789;BME280;66401;42.016;21.454;2023-05-11T07:32:46;98459.50;;;12.08;82.11
62789;BME280;66401;42.016;21.454;2023-05-11T07:35:12;98467.53;;;12.13;81.27
62789;BME280;66401;42.016;21.454;2023-05-11T07:37:39;98462.56;;;12.18;80.58
62789;BME280;66401;42.016;21.454;2023-05-11T07:40:05;98460.94;;;12.17;81.42
62789;BME280;66401;42.016;21.454;2023-05-11T07:42:31;98458.50;;;12.09;81.48
62789;BME280;66401;42.016;21.454;2023-05-11T07:44:57;98465.16;;;12.25;81.00
62789;BME280;66401;42.016;21.454;2023-05-11T07:47:22;98463.59;;;12.30;81.62
62789;BME280;66401;42.016;21.454;2023-05-11T07:49:49;98463.19;;;12.33;81.46
62789;BME280;66401;42.016;21.454;2023-05-11T07:52:14;98464.19;;;12.39;80.66
62789;BME280;66401;42.016;21.454;2023-05-11T07:54:40;98467.41;;;12.41;81.04
62789;BME280;66401;42.016;21.454;2023-05-11T07:57:06;98467.78;;;12.31;79.75
62789;BME280;66401;42.016;21.454;2023-05-11T07:59:32;98469.81;;;12.43;79.91
62789;BME280;66401;42.016;21.454;2023-05-11T08:01:57;98463.00;;;12.48;80.86
62789;BME280;66401;42.016;21.454;2023-05-11T08:04:26;98464.41;;;12.51;80.32
62789;BME280;66401;42.016;21.454;2023-05-11T08:06:51;98459.38;;;12.29;80.76
62789;BME280;66401;42.016;21.454;2023-05-11T08:09:17;98462.81;;;12.37;81.47
62789;BME280;66401;42.016;21.454;2023-05-11T08:11:43;98464.59;;;12.43;80.84
62789;BME280;66401;42.016;21.454;2023-05-11T08:14:08;98458.56;;;12.42;80.00
62789;BME280;66401;42.016;21.454;2023-05-11T08:16:34;98458.19;;;12.39;80.49
62789;BME280;66401;42.016;21.454;2023-05-11T08:19:01;98464.19;;;12.39;80.62
62789;BME280;66401;42.016;21.454;2023-05-11T08:21:27;98456.16;;;12.41;81.63
62789;BME280;66401;42.016;21.454;2023-05-11T08:23:52;98460.38;;;12.42;81.97
62789;BME280;66401;42.016;21.454;2023-05-11T08:26:18;98458.19;;;12.52;81.21
62789;BME280;66401;42.016;21.454;2023-05-11T08:28:44;98454.19;;;12.56;81.09
62789;BME280;66401;42.016;21.454;2023-05-11T08:31:09;98451.56;;;12.56;81.10
62789;BME280;66401;42.016;21.454;2023-05-11T08:33:35;98455.38;;;12.53;82.73
62789;BME280;66401;42.016;21.454;2023-05-11T08:36:00;98459.59;;;12.61;81.47
62789;BME280;66401;42.016;21.454;2023-05-11T08:38:26;98449.56;;;12.58;81.71
62789;BME280;66401;42.016;21.454;2023-05-11T08:40:51;98453.38;;;12.69;81.49
62789;BME280;66401;42.016;21.454;2023-05-11T08:43:18;98456.00;;;12.75;80.47
62789;BME280;66401;42.016;21.454;2023-05-11T08:45:44;98457.41;;;12.78;81.34
62789;BME280;66401;42.016;21.454;2023-05-11T08:48:14;98454.59;;;12.79;81.30
62789;BME280;66401;42.016;21.454;2023-05-11T08:50:43;98452.19;;;12.58;82.46
62789;BME280;66401;42.016;21.454;2023-05-11T08:53:10;98449.53;;;12.51;83.04
62789;BME280;66401;42.016;21.454;2023-05-11T08:55:37;98448.56;;;12.66;83.12
62789;BME280;66401;42.016;21.454;2023-05-11T08:58:05;98455.38;;;12.47;84.16
62789;BME280;66401;42.016;21.454;2023-05-11T09:00:31;98462.56;;;12.31;84.59
62789;BME280;66401;42.016;21.454;2023-05-11T09:02:57;98453.72;;;12.32;83.86
62789;BME280;66401;42.016;21.454;2023-05-11T09:05:24;98456.16;;;12.27;83.53
62789;BME280;66401;42.016;21.454;2023-05-11T09:07:52;98451.72;;;12.35;83.07
62789;BME280;66401;42.016;21.454;2023-05-11T09:10:19;98445.13;;;12.45;82.90
62789;BME280;66401;42.016;21.454;2023-05-11T09:12:45;98444.13;;;12.46;82.47
62789;BME280;66401;42.016;21.454;2023-05-11T09:15:11;98440.91;;;12.64;82.83
62789;BME280;66401;42.016;21.454;2023-05-11T09:17:37;98439.13;;;12.65;81.31
62789;BME280;66401;42.016;21.454;2023-05-11T09:20:04;98434.47;;;12.73;81.15
62789;BME280;66401;42.016;21.454;2023-05-11T09:22:34;98441.13;;;12.56;82.23
62789;BME280;66401;42.016;21.454;2023-05-11T09:25:05;98441.53;;;12.66;80.83
62789;BME280;66401;42.016;21.454;2023-05-11T09:27:31;98443.72;;;12.89;82.50
62789;BME280;66401;42.016;21.454;2023-05-11T09:30:15;98436.47;;;12.91;81.17
62789;BME280;66401;42.016;21.454;2023-05-11T09:32:53;98438.50;;;12.96;80.17
62789;BME280;66401;42.016;21.454;2023-05-11T09:38:07;98432.28;;;12.90;78.98
62789;BME280;66401;42.016;21.454;2023-05-11T09:40:40;98434.09;;;13.03;81.42
62789;BME280;66401;42.016;21.454;2023-05-11T09:43:20;98435.28;;;13.07;78.73
62789;BME280;66401;42.016;21.454;2023-05-11T09:45:48;98429.66;;;13.23;79.07
62789;BME280;66401;42.016;21.454;2023-05-11T09:50:50;98425.19;;;13.30;77.82
62789;BME280;66401;42.016;21.454;2023-05-11T09:53:16;98418.16;;;13.17;77.39
62789;BME280;66401;42.016;21.454;2023-05-11T09:55:54;98415.53;;;13.17;77.78
62789;BME280;66401;42.016;21.454;2023-05-11T09:58:20;98426.41;;;13.34;76.19
62789;BME280;66401;42.016;21.454;2023-05-11T10:00:50;98419.78;;;13.32;75.40
62789;BME280;66401;42.016;21.454;2023-05-11T10:03:15;98423.19;;;13.32;75.08
62789;BME280;66401;42.016;21.454;2023-05-11T10:05:55;98423.78;;;13.34;74.30
62789;BME280;66401;42.016;21.454;2023-05-11T10:08:27;98416.75;;;13.28;75.08
62789;BME280;66401;42.016;21.454;2023-05-11T10:10:55;98409.47;;;13.43;74.96
62789;BME280;66401;42.016;21.454;2023-05-11T10:13:20;98408.25;;;13.39;75.02
62789;BME280;66401;42.016;21.454;2023-05-11T10:15:49;98408.69;;;13.30;75.13
62789;BME280;66401;42.016;21.454;2023-05-11T10:18:16;98414.13;;;13.28;75.08
62789;BME280;66401;42.016;21.454;2023-05-11T10:20:42;98401.06;;;13.15;76.23
62789;BME280;66401;42.016;21.454;2023-05-11T10:23:09;98399.28;;;13.22;74.13
62789;BME280;66401;42.016;21.454;2023-05-11T10:25:36;98399.03;;;13.17;74.92
62789;BME280;66401;42.016;21.454;2023-05-11T10:28:01;98402.28;;;13.19;74.43
62789;BME280;66401;42.016;21.454;2023-05-11T10:30:28;98402.44;;;13.31;74.91
62789;BME280;66401;42.016;21.454;2023-05-11T10:32:54;98401.03;;;13.41;74.73
62789;BME280;66401;42.016;21.454;2023-05-11T10:35:20;98394.16;;;13.47;74.87
62789;BME280;66401;42.016;21.454;2023-05-11T10:37:46;98402.59;;;13.56;75.08
62789;BME280;66401;42.016;21.454;2023-05-11T10:40:12;98400.97;;;13.61;73.74
62789;BME280;66401;42.016;21.454;2023-05-11T10:43:07;98395.09;;;13.66;73.97
62789;BME280;66401;42.016;21.454;2023-05-11T10:55:04;98396.28;;;13.70;74.82
62789;BME280;66401;42.016;21.454;2023-05-11T11:03:15;98373.59;;;13.51;73.41
62789;BME280;66401;42.016;21.454;2023-05-11T11:05:41;98377.63;;;13.53;72.96
62789;BME280;66401;42.016;21.454;2023-05-11T11:08:09;98391.75;;;13.52;73.82
62789;BME280;66401;42.016;21.454;2023-05-11T11:10:37;98389.31;;;13.51;73.45
62789;BME280;66401;42.016;21.454;2023-05-11T11:13:08;98382.06;;;13.53;72.28
62789;BME280;66401;42.016;21.454;2023-05-11T11:18:22;98389.44;;;13.69;72.74
62789;BME280;66401;42.016;21.454;2023-05-11T11:20:49;98382.00;;;13.66;74.81
62789;BME280;66401;42.016;21.454;2023-05-11T11:26:04;98390.09;;;13.58;74.86
62789;BME280;66401;42.016;21.454;2023-05-11T11:31:30;98390.88;;;13.65;75.23
62789;BME280;66401;42.016;21.454;2023-05-11T11:33:58;98386.78;;;13.75;74.96
62789;BME280;66401;42.016;21.454;2023-05-11T11:37:00;98385.13;;;13.88;74.94
62789;BME280;66401;42.016;21.454;2023-05-11T11:39:32;98387.69;;;13.94;75.64
62789;BME280;66401;42.016;21.454;2023-05-11T11:42:11;98379.38;;;14.04;75.31
62789;BME280;66401;42.016;21.454;2023-05-11T11:44:37;98383.00;;;14.10;75.79
62789;BME280;66401;42.016;21.454;2023-05-11T11:47:13;98381.63;;;14.00;75.71
62789;BME280;66401;42.016;21.454;2023-05-11T11:49:40;98372.88;;;14.13;74.22
62789;BME280;66401;42.016;21.454;2023-05-11T11:54:54;98380.06;;;14.24;71.82
62789;BME280;66401;42.016;21.454;2023-05-11T12:00:05;98378.56;;;14.35;74.82
62789;BME280;66401;42.016;21.454;2023-05-11T12:02:32;98371.66;;;14.16;71.60
62789;BME280;66401;42.016;21.454;2023-05-11T12:07:40;98376.75;;;14.36;72.84
62789;BME280;66401;42.016;21.454;2023-05-11T12:10:07;98364.72;;;14.28;73.22
62789;BME280;66401;42.016;21.454;2023-05-11T12:12:34;98371.72;;;14.34;72.87
62789;BME280;66401;42.016;21.454;2023-05-11T12:15:01;98360.97;;;14.17;72.25
62789;BME280;66401;42.016;21.454;2023-05-11T12:17:28;98374.03;;;14.24;73.47
62789;BME280;66401;42.016;21.454;2023-05-11T12:20:09;98374.25;;;14.22;75.15
62789;BME280;66401;42.016;21.454;2023-05-11T12:22:36;98372.25;;;14.18;72.50
62789;BME280;66401;42.016;21.454;2023-05-11T12:25:04;98371.66;;;14.16;71.46
62789;BME280;66401;42.016;21.454;2023-05-11T12:27:30;98369.78;;;14.23;74.07
62789;BME280;66401;42.016;21.454;2023-05-11T12:29:56;98371.97;;;14.26;70.90
62789;BME280;66401;42.016;21.454;2023-05-11T12:32:28;98363.63;;;14.11;71.83
62789;BME280;66401;42.016;21.454;2023-05-11T12:35:01;98355.53;;;14.19;72.27
62789;BME280;66401;42.016;21.454;2023-05-11T12:37:28;98356.69;;;14.23;75.34
62789;BME280;66401;42.016;21.454;2023-05-11T12:39:54;98349.53;;;14.12;71.95
62789;BME280;66401;42.016;21.454;2023-05-11T12:42:20;98342.25;;;14.14;74.26
62789;BME280;66401;42.016;21.454;2023-05-11T12:44:46;98350.16;;;14.39;73.68
62789;BME280;66401;42.016;21.454;2023-05-11T12:47:12;98344.19;;;14.25;71.99
62789;BME280;66401;42.016;21.454;2023-05-11T12:49:40;98342.91;;;14.34;71.03
62789;BME280;66401;42.016;21.454;2023-05-11T12:52:07;98336.38;;;14.43;71.38
62789;BME280;66401;42.016;21.454;2023-05-11T12:54:34;98338.59;;;14.46;72.18
62789;BME280;66401;42.016;21.454;2023-05-11T12:57:02;98335.97;;;14.46;72.21
62789;BME280;66401;42.016;21.454;2023-05-11T12:59:38;98339.81;;;14.44;70.51
62789;BME280;66401;42.016;21.454;2023-05-11T13:04:34;98326.03;;;14.30;69.82
62789;BME280;66401;42.016;21.454;2023-05-11T13:06:59;98322.47;;;14.18;70.73
62789;BME280;66401;42.016;21.454;2023-05-11T13:09:26;98338.88;;;14.38;70.41
62789;BME280;66401;42.016;21.454;2023-05-11T13:12:15;98325.00;;;14.31;70.11
62789;BME280;66401;42.016;21.454;2023-05-11T13:15:06;98326.03;;;14.30;69.22
62789;BME280;66401;42.016;21.454;2023-05-11T13:17:36;98333.38;;;14.15;70.72
62789;BME280;66401;42.016;21.454;2023-05-11T13:20:24;98333.22;;;14.10;70.60
62789;BME280;66401;42.016;21.454;2023-05-11T13:23:08;98329.91;;;14.21;71.00
62789;BME280;66401;42.016;21.454;2023-05-11T13:25:50;98331.09;;;14.25;70.68
62789;BME280;66401;42.016;21.454;2023-05-11T13:28:21;98325.59;;;14.33;69.95
62789;BME280;66401;42.016;21.454;2023-05-11T13:30:49;98320.34;;;14.33;70.74
62789;BME280;66401;42.016;21.454;2023-05-11T13:33:19;98323.28;;;14.43;70.95
62789;BME280;66401;42.016;21.454;2023-05-11T13:35:44;98319.19;;;14.29;70.89
62789;BME280;66401;42.016;21.454;2023-05-11T13:38:11;98321.44;;;14.50;70.05
62789;BME280;66401;42.016;21.454;2023-05-11T13:40:37;98333.63;;;14.63;70.58
62789;BME280;66401;42.016;21.454;2023-05-11T13:43:02;98324.16;;;14.62;69.80
62789;BME280;66401;42.016;21.454;2023-05-11T13:45:28;98322.19;;;14.57;68.78
62789;BME280;66401;42.016;21.454;2023-05-11T13:47:54;98327.44;;;14.57;69.29
62789;BME280;66401;42.016;21.454;2023-05-11T13:50:21;98328.28;;;14.51;70.94
62789;BME280;66401;42.016;21.454;2023-05-11T13:52:47;98327.44;;;14.57;71.50
62789;BME280;66401;42.016;21.454;2023-05-11T13:55:12;98326.50;;;14.70;70.76
62789;BME280;66401;42.016;21.454;2023-05-11T13:57:38;98323.97;;;14.82;70.93
62789;BME280;66401;42.016;21.454;2023-05-11T14:00:04;98318.72;;;14.82;71.04
62789;BME280;66401;42.016;21.454;2023-05-11T14:02:29;98320.31;;;14.83;71.33
62789;BME280;66401;42.016;21.454;2023-05-11T14:04:55;98319.47;;;14.89;71.83
62789;BME280;66401;42.016;21.454;2023-05-11T14:07:20;98317.63;;;14.89;69.71
62789;BME280;66401;42.016;21.454;2023-05-11T14:09:46;98307.06;;;14.78;70.12
62789;BME280;66401;42.016;21.454;2023-05-11T14:12:13;98324.19;;;14.99;69.99
62789;BME280;66401;42.016;21.454;2023-05-11T14:14:38;98310.78;;;15.07;70.07
62789;BME280;66401;42.016;21.454;2023-05-11T14:17:04;98308.38;;;15.05;69.62
62789;BME280;66401;42.016;21.454;2023-05-11T14:19:30;98322.00;;;15.14;69.39
62789;BME280;66401;42.016;21.454;2023-05-11T14:21:55;98316.34;;;15.17;68.97
62789;BME280;66401;42.016;21.454;2023-05-11T14:24:21;98315.66;;;15.22;69.82
62789;BME280;66401;42.016;21.454;2023-05-11T14:26:47;98310.97;;;15.24;69.42
62789;BME280;66401;42.016;21.454;2023-05-11T14:29:12;98308.28;;;15.30;69.34
62789;BME280;66401;42.016;21.454;2023-05-11T14:31:38;98316.91;;;15.19;69.78
62789;BME280;66401;42.016;21.454;2023-05-11T14:34:03;98304.88;;;15.30;70.74
62789;BME280;66401;42.016;21.454;2023-05-11T14:36:29;98296.41;;;15.28;70.77
62789;BME280;66401;42.016;21.454;2023-05-11T14:38:55;98301.44;;;15.29;69.75
62789;BME280;66401;42.016;21.454;2023-05-11T14:41:21;98290.78;;;15.24;70.09
62789;BME280;66401;42.016;21.454;2023-05-11T14:43:47;98313.03;;;15.22;69.22
62789;BME280;66401;42.016;21.454;2023-05-11T14:46:14;98295.41;;;15.10;68.69
62789;BME280;66401;42.016;21.454;2023-05-11T14:48:40;98300.06;;;15.08;70.39
62789;BME280;66401;42.016;21.454;2023-05-11T14:51:06;98304.00;;;14.99;71.91
62789;BME280;66401;42.016;21.454;2023-05-11T14:53:32;98300.22;;;14.95;72.70
62789;BME280;66401;42.016;21.454;2023-05-11T14:55:58;98300.59;;;14.99;73.47
62789;BME280;66401;42.016;21.454;2023-05-11T14:58:24;98307.22;;;15.01;73.33
62789;BME280;66401;42.016;21.454;2023-05-11T15:00:49;98321.28;;;15.07;71.71
62789;BME280;66401;42.016;21.454;2023-05-11T15:03:15;98308.97;;;14.89;72.12
62789;BME280;66401;42.016;21.454;2023-05-11T15:05:40;98313.31;;;14.95;72.03
62789;BME280;66401;42.016;21.454;2023-05-11T15:08:06;98302.69;;;14.90;73.88
62789;BME280;66401;42.016;21.454;2023-05-11T15:10:32;98315.81;;;14.90;74.55
62789;BME280;66401;42.016;21.454;2023-05-11T15:12:57;98321.78;;;14.97;73.60
62789;BME280;66401;42.016;21.454;2023-05-11T15:15:23;98320.63;;;14.93;73.91
62789;BME280;66401;42.016;21.454;2023-05-11T15:17:49;98321.91;;;14.84;75.11
62789;BME280;66401;42.016;21.454;2023-05-11T15:20:18;98324.03;;;14.94;74.48
62789;BME280;66401;42.016;21.454;2023-05-11T15:22:43;98326.00;;;14.80;76.04
62789;BME280;66401;42.016;21.454;2023-05-11T15:25:10;98320.31;;;14.83;76.05
62789;BME280;66401;42.016;21.454;2023-05-11T15:27:35;98322.13;;;14.82;76.60
62789;BME280;66401;42.016;21.454;2023-05-11T15:30:01;98321.56;;;14.80;76.30
62789;BME280;66401;42.016;21.454;2023-05-11T15:32:28;98326.59;;;14.82;76.64
62789;BME280;66401;42.016;21.454;2023-05-11T15:34:53;98324.81;;;14.76;77.48
62789;BME280;66401;42.016;21.454;2023-05-11T15:37:20;98331.97;;;14.69;77.70
62789;BME280;66401;42.016;21.454;2023-05-11T15:39:46;98329.34;;;14.69;78.03
62789;BME280;66401;42.016;21.454;2023-05-11T15:42:11;98321.75;;;14.60;78.38
62789;BME280;66401;42.016;21.454;2023-05-11T15:44:37;98330.06;;;14.57;78.77
62789;BME280;66401;42.016;21.454;2023-05-11T15:47:03;98319.97;;;14.54;79.16
62789;BME280;66401;42.016;21.454;2023-05-11T15:49:30;98321.66;;;14.49;79.38
62789;BME280;66401;42.016;21.454;2023-05-11T15:51:57;98318.38;;;14.53;79.60
62789;BME280;66401;42.016;21.454;2023-05-11T15:54:22;98315.31;;;14.56;79.60
62789;BME280;66401;42.016;21.454;2023-05-11T15:56:48;98312.81;;;14.43;83.75
62789;BME280;66401;42.016;21.454;2023-05-11T15:59:13;98314.16;;;14.52;81.94
62789;BME280;66401;42.016;21.454;2023-05-11T16:01:39;98326.59;;;14.57;81.43
62789;BME280;66401;42.016;21.454;2023-05-11T16:04:04;98325.41;;;14.59;80.75
62789;BME280;66401;42.016;21.454;2023-05-11T16:06:32;98318.59;;;14.52;80.76
62789;BME280;66401;42.016;21.454;2023-05-11T16:08:58;98328.50;;;14.50;80.16
62789;BME280;66401;42.016;21.454;2023-05-11T16:11:23;98332.34;;;14.47;81.16
62789;BME280;66401;42.016;21.454;2023-05-11T16:13:49;98338.22;;;14.43;80.63
62789;BME280;66401;42.016;21.454;2023-05-11T16:16:14;98324.00;;;14.32;80.22
62789;BME280;66401;42.016;21.454;2023-05-11T16:18:40;98328.44;;;14.31;81.70
62789;BME280;66401;42.016;21.454;2023-05-11T16:21:05;98329.91;;;14.21;81.42
62789;BME280;66401;42.016;21.454;2023-05-11T16:23:31;98331.34;;;14.17;80.07
62789;BME280;66401;42.016;21.454;2023-05-11T16:25:56;98311.00;;;13.87;79.64
62789;BME280;66401;42.016;21.454;2023-05-11T16:28:22;98332.72;;;13.94;80.50
62789;BME280;66401;42.016;21.454;2023-05-11T16:30:47;98329.66;;;13.97;81.16
62789;BME280;66401;42.016;21.454;2023-05-11T16:33:13;98325.91;;;13.87;81.19
62789;BME280;66401;42.016;21.454;2023-05-11T16:35:38;98333.72;;;13.93;81.51
62789;BME280;66401;42.016;21.454;2023-05-11T16:38:04;98344.63;;;13.90;81.67
62789;BME280;66401;42.016;21.454;2023-05-11T16:40:30;98337.63;;;13.84;82.95
62789;BME280;66401;42.016;21.454;2023-05-11T16:42:56;98337.63;;;13.84;82.22
62789;BME280;66401;42.016;21.454;2023-05-11T16:45:22;98340.66;;;13.81;83.03
62789;BME280;66401;42.016;21.454;2023-05-11T16:47:47;98332.84;;;13.74;82.11
62789;BME280;66401;42.016;21.454;2023-05-11T16:50:13;98338.66;;;13.77;81.42
62789;BME280;66401;42.016;21.454;2023-05-11T16:52:40;98329.31;;;13.56;82.05
62789;BME280;66401;42.016;21.454;2023-05-11T16:55:06;98339.13;;;13.60;82.83
62789;BME280;66401;42.016;21.454;2023-05-11T16:57:32;98338.19;;;13.55;83.20
62789;BME280;66401;42.016;21.454;2023-05-11T16:59:57;98345.47;;;13.46;84.56
62789;BME280;66401;42.016;21.454;2023-05-11T17:02:23;98342.09;;;13.32;84.73
62789;BME280;66401;42.016;21.454;2023-05-11T17:04:48;98343.88;;;13.38;83.85
62789;BME280;66401;42.016;21.454;2023-05-11T17:07:14;98351.94;;;13.37;85.05
62789;BME280;66401;42.016;21.454;2023-05-11T17:09:40;98354.97;;;13.34;84.75
62789;BME280;66401;42.016;21.454;2023-05-11T17:12:07;98351.56;;;13.33;85.03
62789;BME280;66401;42.016;21.454;2023-05-11T17:14:33;98357.19;;;13.17;85.71
62789;BME280;66401;42.016;21.454;2023-05-11T17:16:59;98355.56;;;13.29;84.50
62789;BME280;66401;42.016;21.454;2023-05-11T17:19:24;98339.50;;;13.19;84.25
62789;BME280;66401;42.016;21.454;2023-05-11T17:21:50;98354.41;;;13.25;84.40
62789;BME280;66401;42.016;21.454;2023-05-11T17:24:15;98337.50;;;13.08;85.61
62789;BME280;66401;42.016;21.454;2023-05-11T17:26:41;98360.63;;;13.17;84.18
62789;BME280;66401;42.016;21.454;2023-05-11T17:29:06;98347.38;;;13.06;84.30
62789;BME280;66401;42.016;21.454;2023-05-11T17:31:31;98360.03;;;13.15;84.63
62789;BME280;66401;42.016;21.454;2023-05-11T17:33:57;98368.09;;;13.14;83.77
62789;BME280;66401;42.016;21.454;2023-05-11T17:36:22;98360.63;;;13.11;84.96
62789;BME280;66401;42.016;21.454;2023-05-11T17:38:48;98367.28;;;13.07;84.96
62789;BME280;66401;42.016;21.454;2023-05-11T17:41:15;98362.88;;;13.01;85.16
62789;BME280;66401;42.016;21.454;2023-05-11T17:43:41;98363.28;;;13.04;84.60
62789;BME280;66401;42.016;21.454;2023-05-11T17:46:06;98359.25;;;13.02;85.16
62789;BME280;66401;42.016;21.454;2023-05-11T17:48:32;98369.91;;;13.00;85.44
62789;BME280;66401;42.016;21.454;2023-05-11T17:50:58;98363.31;;;12.84;85.64
62789;BME280;66401;42.016;21.454;2023-05-11T17:53:23;98363.31;;;12.84;86.04
62789;BME280;66401;42.016;21.454;2023-05-11T17:55:49;98354.25;;;12.80;85.95
62789;BME280;66401;42.016;21.454;2023-05-11T17:58:17;98360.09;;;12.82;85.65
62789;BME280;66401;42.016;21.454;2023-05-11T18:00:42;98366.13;;;12.83;85.13
62789;BME280;66401;42.016;21.454;2023-05-11T18:03:10;98374.56;;;12.85;86.17
62789;BME280;66401;42.016;21.454;2023-05-11T18:05:36;98384.22;;;12.84;85.79
62789;BME280;66401;42.016;21.454;2023-05-11T18:08:02;98383.81;;;12.81;85.56
62789;BME280;66401;42.016;21.454;2023-05-11T18:10:28;98370.16;;;12.72;86.04
62789;BME280;66401;42.016;21.454;2023-05-11T18:12:54;98386.63;;;12.73;86.03
62789;BME280;66401;42.016;21.454;2023-05-11T18:15:19;98389.06;;;12.68;85.23
62789;BME280;66401;42.016;21.454;2023-05-11T18:17:45;98394.69;;;12.58;86.70
62789;BME280;66401;42.016;21.454;2023-05-11T18:20:11;98397.91;;;12.60;85.56
62789;BME280;66401;42.016;21.454;2023-05-11T18:22:36;98380.22;;;12.49;85.83
62789;BME280;66401;42.016;21.454;2023-05-11T18:25:02;98386.63;;;12.53;85.76
62789;BME280;66401;42.016;21.454;2023-05-11T18:27:28;98383.22;;;12.52;85.73
62789;BME280;66401;42.016;21.454;2023-05-11T18:29:53;98385.03;;;12.52;85.03
62789;BME280;66401;42.016;21.454;2023-05-11T18:32:19;98395.88;;;12.62;85.67
62789;BME280;66401;42.016;21.454;2023-05-11T18:34:47;98409.16;;;12.54;87.14
62789;BME280;66401;42.016;21.454;2023-05-11T18:37:13;98404.16;;;12.46;87.43
62789;BME280;66401;42.016;21.454;2023-05-11T18:39:39;98407.94;;;12.50;86.74
62789;BME280;66401;42.016;21.454;2023-05-11T18:42:05;98404.31;;;12.44;87.00
62789;BME280;66401;42.016;21.454;2023-05-11T18:44:31;98393.47;;;12.41;86.37
62789;BME280;66401;42.016;21.454;2023-05-11T18:46:56;98405.13;;;12.45;86.20
62789;BME280;66401;42.016;21.454;2023-05-11T18:49:22;98407.94;;;12.43;86.17
62789;BME280;66401;42.016;21.454;2023-05-11T18:51:48;98418.81;;;12.47;85.28
62789;BME280;66401;42.016;21.454;2023-05-11T18:54:14;98414.75;;;12.44;86.51
62789;BME280;66401;42.016;21.454;2023-05-11T18:56:39;98418.00;;;12.46;86.14